createdAt,value
2019-03-31T00:02:10.921Z,7.70
2019-03-31T00:04:42.462Z,7.60
2019-03-31T00:07:13.635Z,7.60
2019-03-31T00:09:44.988Z,7.50
2019-03-31T00:12:16.236Z,7.50
2019-03-31T00:14:47.224Z,7.50
2019-03-31T00:17:18.419Z,7.40
2019-03-31T00:19:50.605Z,7.40
2019-03-31T00:22:22.257Z,7.30
2019-03-31T00:24:53.764Z,7.20
2019-03-31T00:27:26.299Z,7.20
2019-03-31T00:29:57.424Z,7.10
2019-03-31T00:32:28.602Z,7.00
2019-03-31T00:34:59.998Z,7.00
2019-03-31T00:37:31.849Z,7.00
2019-03-31T00:40:02.843Z,6.90
2019-03-31T00:42:34.152Z,6.90
2019-03-31T00:45:05.926Z,6.90
2019-03-31T00:47:37.242Z,6.90
2019-03-31T00:50:08.949Z,6.90
2019-03-31T00:52:39.938Z,6.80
2019-03-31T00:55:12.800Z,6.70
2019-03-31T00:57:44.807Z,6.70
2019-03-31T01:00:36.819Z,6.60
2019-03-31T01:03:09.621Z,6.50
2019-03-31T01:05:42.856Z,6.50
2019-03-31T01:08:14.743Z,6.50
2019-03-31T01:10:47.365Z,6.40
2019-03-31T01:13:19.324Z,6.30
2019-03-31T01:15:52.991Z,6.30
2019-03-31T01:18:24.792Z,6.20
2019-03-31T01:20:55.866Z,6.20
2019-03-31T01:23:27.219Z,6.10
2019-03-31T01:26:00.611Z,6.10
2019-03-31T01:28:31.909Z,6.00
2019-03-31T01:31:03.437Z,6.00
2019-03-31T01:33:34.456Z,6.10
2019-03-31T01:36:06.547Z,6.10
2019-03-31T01:38:37.692Z,6.10
2019-03-31T01:41:08.788Z,6.10
2019-03-31T01:43:40.210Z,6.00
2019-03-31T01:46:13.735Z,6.00
2019-03-31T01:48:45.147Z,6.00
2019-03-31T01:51:16.919Z,6.00
2019-03-31T01:53:48.062Z,6.00
2019-03-31T01:56:20.436Z,6.00
2019-03-31T01:58:51.427Z,6.00
2019-03-31T02:01:22.506Z,5.90
2019-03-31T02:03:53.951Z,6.00
2019-03-31T02:06:25.349Z,5.90
2019-03-31T02:08:56.644Z,6.00
2019-03-31T02:11:28.051Z,6.00
2019-03-31T02:13:59.259Z,6.00
2019-03-31T02:16:30.523Z,6.00
2019-03-31T02:19:01.627Z,6.00
2019-03-31T02:21:32.815Z,6.00
2019-03-31T02:24:04.165Z,6.00
2019-03-31T02:26:35.508Z,6.00
2019-03-31T02:29:06.922Z,6.00
2019-03-31T02:31:38.334Z,6.00
2019-03-31T02:34:09.374Z,6.00
2019-03-31T02:36:40.590Z,6.00
2019-03-31T02:39:11.764Z,6.00
2019-03-31T02:41:42.949Z,5.90
2019-03-31T02:44:14.080Z,5.90
2019-03-31T02:46:45.447Z,5.80
2019-03-31T02:49:16.610Z,5.70
2019-03-31T02:51:48.904Z,5.70
2019-03-31T02:54:20.092Z,5.70
2019-03-31T02:56:51.963Z,5.60
2019-03-31T02:59:24.434Z,5.60
2019-03-31T03:01:57.892Z,5.60
2019-03-31T03:04:31.560Z,5.50
2019-03-31T03:07:04.602Z,5.50
2019-03-31T03:09:37.499Z,5.40
2019-03-31T03:12:10.587Z,5.40
2019-03-31T03:14:42.771Z,5.30
2019-03-31T03:17:13.871Z,5.30
2019-03-31T03:19:44.873Z,5.30
2019-03-31T03:22:15.905Z,5.20
2019-03-31T03:24:46.935Z,5.10
2019-03-31T03:27:18.112Z,5.20
2019-03-31T03:29:49.133Z,5.20
2019-03-31T03:32:20.194Z,5.30
2019-03-31T03:34:52.011Z,5.30
2019-03-31T03:37:23.171Z,5.30
2019-03-31T03:39:54.257Z,5.30
2019-03-31T03:42:25.490Z,5.40
2019-03-31T03:44:56.984Z,5.30
2019-03-31T03:47:28.831Z,5.30
2019-03-31T03:49:59.977Z,5.30
2019-03-31T03:52:31.137Z,5.40
2019-03-31T03:55:02.279Z,5.30
2019-03-31T03:57:33.543Z,5.30
2019-03-31T04:00:04.963Z,5.30
2019-03-31T04:02:36.332Z,5.30
2019-03-31T04:05:07.412Z,5.30
2019-03-31T04:07:38.507Z,5.20
2019-03-31T04:10:30.875Z,5.20
2019-03-31T04:13:02.159Z,5.20
2019-03-31T04:15:33.229Z,5.20
2019-03-31T04:18:04.498Z,5.30
2019-03-31T04:20:39.132Z,5.30
2019-03-31T04:23:08.761Z,5.40
2019-03-31T04:25:39.896Z,5.40
2019-03-31T04:28:11.065Z,5.50
2019-03-31T04:30:42.276Z,5.50
2019-03-31T04:33:13.371Z,5.50
2019-03-31T04:35:44.529Z,5.50
2019-03-31T04:38:15.687Z,5.50
2019-03-31T04:40:46.669Z,5.70
2019-03-31T04:43:17.755Z,5.80
2019-03-31T04:45:48.770Z,5.90
2019-03-31T04:48:19.838Z,6.00
2019-03-31T04:50:52.283Z,6.10
2019-03-31T04:53:23.660Z,6.10
2019-03-31T04:55:54.677Z,6.30
2019-03-31T04:58:26.002Z,6.40
2019-03-31T05:00:57.402Z,6.60
2019-03-31T05:03:28.748Z,6.90
2019-03-31T05:06:00.041Z,7.10
2019-03-31T05:08:31.344Z,7.40
2019-03-31T05:11:02.995Z,7.80
2019-03-31T05:13:34.636Z,8.20
2019-03-31T05:16:06.186Z,8.50
2019-03-31T05:18:37.235Z,8.70
2019-03-31T05:21:08.551Z,9.10
2019-03-31T05:23:39.824Z,9.30
2019-03-31T05:26:11.384Z,9.70
2019-03-31T05:28:44.194Z,9.80
2019-03-31T05:31:15.288Z,10.10
2019-03-31T05:33:46.396Z,10.50
2019-03-31T05:36:17.531Z,10.70
2019-03-31T05:38:48.630Z,11.30
2019-03-31T05:41:19.798Z,11.30
2019-03-31T05:44:04.858Z,11.80
2019-03-31T05:46:24.384Z,11.60
2019-03-31T05:48:55.516Z,12.20
2019-03-31T05:51:26.529Z,11.90
2019-03-31T05:53:57.891Z,12.30
2019-03-31T05:56:29.338Z,12.50
2019-03-31T05:59:00.496Z,12.60
2019-03-31T06:01:31.658Z,12.90
2019-03-31T06:04:02.895Z,12.90
2019-03-31T06:06:36.956Z,13.20
2019-03-31T06:09:08.191Z,13.30
2019-03-31T06:11:39.861Z,13.60
2019-03-31T06:14:11.316Z,13.70
2019-03-31T06:16:42.776Z,13.90
2019-03-31T06:19:14.612Z,13.90
2019-03-31T06:21:45.734Z,13.90
2019-03-31T06:24:16.804Z,14.00
2019-03-31T06:26:48.265Z,14.10
2019-03-31T06:29:19.948Z,14.20
2019-03-31T06:31:53.260Z,14.30
2019-03-31T06:34:24.408Z,14.40
2019-03-31T06:36:55.642Z,14.50
2019-03-31T06:39:27.100Z,14.50
2019-03-31T06:42:00.336Z,14.60
2019-03-31T06:44:31.806Z,14.80
2019-03-31T06:47:02.966Z,15.10
2019-03-31T06:49:34.170Z,15.20
2019-03-31T06:52:05.200Z,15.30
2019-03-31T06:54:36.408Z,15.40
2019-03-31T06:57:07.566Z,15.50
2019-03-31T06:59:38.856Z,15.70
2019-03-31T07:02:10.162Z,15.90
2019-03-31T07:04:41.192Z,16.10
2019-03-31T07:07:12.647Z,16.30
2019-03-31T07:09:44.108Z,16.60
2019-03-31T07:12:15.392Z,16.60
2019-03-31T07:14:46.809Z,16.80
2019-03-31T07:17:18.229Z,16.90
2019-03-31T07:19:49.716Z,17.00
2019-03-31T07:22:24.249Z,17.30
2019-03-31T07:24:54.109Z,17.50
2019-03-31T07:27:25.529Z,17.40
2019-03-31T07:29:56.786Z,17.80
2019-03-31T07:32:27.930Z,18.10
2019-03-31T07:34:59.311Z,18.40
2019-03-31T07:37:30.863Z,18.70
2019-03-31T07:40:02.347Z,18.90
2019-03-31T07:42:33.736Z,19.10
2019-03-31T07:45:05.807Z,19.30
2019-03-31T07:47:37.112Z,19.20
2019-03-31T07:50:09.121Z,19.30
2019-03-31T07:52:40.456Z,19.30
2019-03-31T07:55:12.568Z,19.50
2019-03-31T07:57:44.007Z,19.80
2019-03-31T08:00:17.691Z,20.10
2019-03-31T08:02:48.693Z,20.10
2019-03-31T08:05:32.354Z,20.40
2019-03-31T08:07:52.613Z,20.50
2019-03-31T08:10:24.057Z,20.40
2019-03-31T08:13:01.900Z,20.40
2019-03-31T08:15:33.104Z,20.30
2019-03-31T08:18:05.038Z,20.60
2019-03-31T08:20:36.866Z,20.70
2019-03-31T08:23:07.843Z,20.90
2019-03-31T08:25:39.100Z,20.70
2019-03-31T08:28:10.632Z,20.70
2019-03-31T08:30:41.672Z,21.00
2019-03-31T08:33:12.838Z,21.10
2019-03-31T08:35:47.705Z,21.30
2019-03-31T08:38:16.962Z,21.40
2019-03-31T08:40:48.093Z,21.50
2019-03-31T08:43:19.492Z,21.40
2019-03-31T08:45:50.635Z,21.50
2019-03-31T08:48:22.337Z,21.60
2019-03-31T08:50:54.101Z,21.80
2019-03-31T08:53:25.305Z,21.70
2019-03-31T08:55:56.571Z,21.80
2019-03-31T08:58:27.931Z,21.80
2019-03-31T09:01:02.883Z,21.60
2019-03-31T09:03:34.301Z,21.70
2019-03-31T09:06:05.705Z,21.70
2019-03-31T09:08:36.981Z,21.70
2019-03-31T09:11:08.199Z,21.80
2019-03-31T09:13:39.613Z,21.90
2019-03-31T09:16:10.745Z,22.00
2019-03-31T09:18:42.357Z,21.90
2019-03-31T09:21:14.879Z,21.80
2019-03-31T09:23:46.728Z,21.70
2019-03-31T09:26:18.034Z,21.90
2019-03-31T09:28:49.696Z,21.90
2019-03-31T09:31:21.192Z,22.00
2019-03-31T09:33:52.228Z,21.90
2019-03-31T09:36:23.885Z,21.90
2019-03-31T09:38:55.338Z,21.60
2019-03-31T09:41:26.692Z,21.70
2019-03-31T09:43:58.145Z,21.70
2019-03-31T09:46:29.365Z,21.60
2019-03-31T09:49:00.434Z,21.50
2019-03-31T09:51:31.935Z,21.40
2019-03-31T09:54:03.340Z,21.60
2019-03-31T09:56:34.763Z,21.40
2019-03-31T09:59:06.758Z,21.50
2019-03-31T10:01:38.013Z,21.40
2019-03-31T10:04:09.166Z,21.40
2019-03-31T10:06:40.366Z,21.40
2019-03-31T10:09:11.568Z,21.40
2019-03-31T10:11:42.895Z,21.20
2019-03-31T10:14:14.331Z,21.00
2019-03-31T10:16:46.547Z,20.90
2019-03-31T10:19:17.726Z,20.90
2019-03-31T10:21:48.815Z,20.80
2019-03-31T10:24:21.234Z,20.80
2019-03-31T10:26:52.490Z,20.80
2019-03-31T10:29:24.806Z,20.70
2019-03-31T10:31:56.199Z,20.60
2019-03-31T10:34:27.577Z,20.60
2019-03-31T10:36:58.857Z,20.50
2019-03-31T10:39:30.149Z,20.50
2019-03-31T10:42:01.267Z,20.50
2019-03-31T10:44:33.108Z,20.40
2019-03-31T10:47:04.452Z,20.30
2019-03-31T10:49:35.679Z,20.30
2019-03-31T10:52:06.942Z,20.30
2019-03-31T10:54:38.267Z,20.20
2019-03-31T10:57:09.405Z,20.10
2019-03-31T10:59:40.426Z,20.10
2019-03-31T11:02:11.465Z,20.00
2019-03-31T11:04:42.645Z,19.90
2019-03-31T11:07:13.997Z,19.80
2019-03-31T11:09:45.159Z,19.80
2019-03-31T11:12:16.662Z,19.90
2019-03-31T11:14:47.848Z,19.80
2019-03-31T11:17:18.884Z,19.80
2019-03-31T11:19:50.209Z,19.80
2019-03-31T11:22:34.866Z,19.70
2019-03-31T11:25:19.931Z,19.70
2019-03-31T11:27:39.886Z,19.70
2019-03-31T11:30:12.878Z,19.80
2019-03-31T11:32:45.135Z,19.80
2019-03-31T11:35:16.541Z,19.70
2019-03-31T11:37:47.858Z,19.60
2019-03-31T11:40:18.977Z,19.60
2019-03-31T11:42:50.234Z,19.60
2019-03-31T11:45:21.793Z,19.60
2019-03-31T11:47:53.932Z,19.60
2019-03-31T11:50:25.228Z,19.60
2019-03-31T11:52:56.375Z,19.60
2019-03-31T11:55:28.270Z,19.60
2019-03-31T11:57:59.548Z,19.50
2019-03-31T12:00:34.701Z,19.60
2019-03-31T12:03:06.163Z,19.60
2019-03-31T12:05:37.548Z,19.60
2019-03-31T12:08:08.623Z,19.60
2019-03-31T12:10:40.033Z,19.60
2019-03-31T12:13:11.549Z,19.60
2019-03-31T12:15:43.005Z,19.70
2019-03-31T12:18:14.437Z,19.70
2019-03-31T12:20:45.498Z,19.60
2019-03-31T12:23:16.620Z,19.70
2019-03-31T12:25:48.474Z,19.60
2019-03-31T12:28:21.414Z,19.70
2019-03-31T12:30:52.993Z,19.60
2019-03-31T12:33:24.828Z,19.60
2019-03-31T12:35:56.207Z,19.70
2019-03-31T12:38:27.350Z,19.70
2019-03-31T12:40:58.723Z,19.70
2019-03-31T12:43:30.265Z,19.70
2019-03-31T12:46:01.872Z,19.70
2019-03-31T12:48:33.133Z,19.70
2019-03-31T12:51:04.266Z,19.70
2019-03-31T12:53:35.646Z,19.70
2019-03-31T12:56:07.045Z,19.70
2019-03-31T12:58:38.270Z,19.60
2019-03-31T13:01:09.687Z,19.60
2019-03-31T13:03:40.885Z,19.50
2019-03-31T13:06:12.355Z,19.50
2019-03-31T13:08:43.734Z,19.40
2019-03-31T13:11:14.800Z,19.40
2019-03-31T13:13:45.960Z,19.30
2019-03-31T13:16:17.305Z,19.20
2019-03-31T13:18:48.481Z,19.20
2019-03-31T13:21:20.098Z,19.20
2019-03-31T13:23:52.482Z,19.30
2019-03-31T13:26:24.305Z,19.30
2019-03-31T13:28:55.829Z,19.40
2019-03-31T13:31:26.963Z,19.50
2019-03-31T13:33:58.498Z,19.50
2019-03-31T13:36:30.074Z,19.50
2019-03-31T13:39:01.546Z,19.50
2019-03-31T13:41:34.677Z,19.50
2019-03-31T13:44:06.611Z,19.50
2019-03-31T13:46:37.908Z,19.40
2019-03-31T13:49:09.206Z,19.40
2019-03-31T13:51:40.429Z,19.40
2019-03-31T13:54:11.674Z,19.40
2019-03-31T13:56:47.717Z,19.30
2019-03-31T13:59:16.848Z,19.30
2019-03-31T14:01:50.447Z,19.30
2019-03-31T14:04:21.815Z,19.20
2019-03-31T14:06:53.089Z,19.10
2019-03-31T14:09:24.559Z,19.10
2019-03-31T14:11:56.891Z,19.10
2019-03-31T14:14:28.557Z,19.00
2019-03-31T14:17:00.167Z,19.00
2019-03-31T14:19:31.577Z,18.80
2019-03-31T14:22:03.033Z,18.80
2019-03-31T14:24:34.424Z,18.70
2019-03-31T14:27:05.765Z,18.70
2019-03-31T14:29:37.168Z,18.70
2019-03-31T14:32:09.751Z,18.80
2019-03-31T14:34:44.687Z,18.80
2019-03-31T14:37:16.412Z,18.90
2019-03-31T14:39:47.886Z,18.90
2019-03-31T14:42:19.206Z,19.00
2019-03-31T14:44:50.513Z,19.10
2019-03-31T14:47:21.787Z,19.20
2019-03-31T14:49:53.077Z,19.20
2019-03-31T14:52:27.752Z,19.30
2019-03-31T14:54:58.779Z,19.20
2019-03-31T14:57:30.161Z,19.30
2019-03-31T15:00:13.828Z,19.30
2019-03-31T15:02:35.076Z,19.30
2019-03-31T15:05:07.400Z,19.30
2019-03-31T15:07:38.790Z,19.30
2019-03-31T15:10:09.883Z,19.30
2019-03-31T15:12:41.130Z,19.30
2019-03-31T15:15:12.469Z,19.30
2019-03-31T15:17:43.663Z,19.30
2019-03-31T15:20:15.063Z,19.20
2019-03-31T15:22:46.441Z,19.30
2019-03-31T15:25:18.563Z,19.30
2019-03-31T15:27:49.841Z,19.20
2019-03-31T15:30:21.150Z,19.20
2019-03-31T15:32:52.713Z,19.10
2019-03-31T15:35:23.915Z,19.20
2019-03-31T15:37:55.638Z,19.10
2019-03-31T15:40:27.226Z,19.00
2019-03-31T15:42:58.426Z,19.00
2019-03-31T15:45:29.544Z,18.90
2019-03-31T15:48:00.907Z,18.80
2019-03-31T15:50:32.289Z,18.70
2019-03-31T15:53:03.380Z,18.50
2019-03-31T15:55:34.713Z,18.40
2019-03-31T15:58:06.005Z,18.40
2019-03-31T16:00:37.271Z,18.30
2019-03-31T16:03:09.004Z,18.20
2019-03-31T16:05:40.309Z,18.10
2019-03-31T16:08:11.059Z,18.00
2019-03-31T16:10:42.517Z,17.90
2019-03-31T16:13:13.350Z,17.90
2019-03-31T16:15:44.177Z,17.80
2019-03-31T16:18:14.845Z,17.80
2019-03-31T16:20:45.744Z,17.80
2019-03-31T16:23:16.633Z,17.70
2019-03-31T16:25:54.187Z,17.70
2019-03-31T16:28:25.236Z,17.60
2019-03-31T16:30:56.235Z,17.60
2019-03-31T16:33:27.209Z,17.50
2019-03-31T16:35:58.175Z,17.50
2019-03-31T16:38:29.189Z,17.40
2019-03-31T16:41:00.350Z,17.40
2019-03-31T16:43:31.201Z,17.40
2019-03-31T16:46:02.494Z,17.30
2019-03-31T16:48:33.227Z,17.20
2019-03-31T16:51:04.544Z,17.20
2019-03-31T16:53:35.646Z,17.10
2019-03-31T16:56:06.374Z,17.10
2019-03-31T16:58:37.225Z,17.00
2019-03-31T17:01:08.087Z,17.00
2019-03-31T17:03:38.780Z,16.90
2019-03-31T17:06:10.433Z,16.90
2019-03-31T17:08:41.588Z,16.80
2019-03-31T17:11:12.547Z,16.80
2019-03-31T17:13:43.436Z,16.70
2019-03-31T17:16:15.525Z,16.60
2019-03-31T17:18:47.871Z,16.60
2019-03-31T17:21:18.648Z,16.50
2019-03-31T17:23:49.208Z,16.50
2019-03-31T17:26:20.017Z,16.50
2019-03-31T17:28:50.729Z,16.40
2019-03-31T17:31:21.718Z,16.30
2019-03-31T17:33:52.759Z,16.30
2019-03-31T17:36:23.847Z,16.30
2019-03-31T17:38:54.655Z,16.20
2019-03-31T17:41:25.684Z,16.20
2019-03-31T17:43:56.645Z,16.00
2019-03-31T17:46:27.559Z,16.00
2019-03-31T17:48:58.810Z,16.00
2019-03-31T17:51:30.036Z,15.90
2019-03-31T17:54:01.209Z,15.80
2019-03-31T17:56:32.754Z,15.80
2019-03-31T17:59:03.565Z,15.80
2019-03-31T18:01:34.500Z,15.70
2019-03-31T18:04:05.644Z,15.60
2019-03-31T18:06:36.713Z,15.50
2019-03-31T18:09:09.579Z,15.50
2019-03-31T18:11:40.368Z,15.40
2019-03-31T18:14:11.243Z,15.40
2019-03-31T18:16:42.163Z,15.30
2019-03-31T18:19:13.228Z,15.20
2019-03-31T18:21:45.239Z,15.10
2019-03-31T18:24:16.414Z,15.00
2019-03-31T18:26:47.627Z,14.90
2019-03-31T18:29:19.165Z,14.80
2019-03-31T18:31:49.972Z,14.80
2019-03-31T18:34:20.726Z,14.70
2019-03-31T18:36:51.439Z,14.60
2019-03-31T18:39:22.456Z,14.50
2019-03-31T18:41:53.410Z,14.50
2019-03-31T18:44:24.711Z,14.40
2019-03-31T18:46:55.895Z,14.30
2019-03-31T18:49:26.429Z,14.20
2019-03-31T18:51:58.720Z,14.20
2019-03-31T18:54:39.468Z,14.20
2019-03-31T18:57:18.699Z,14.10
2019-03-31T18:59:58.585Z,14.00
2019-03-31T19:02:47.312Z,14.00
2019-03-31T19:05:49.588Z,13.90
2019-03-31T19:08:34.684Z,13.80
2019-03-31T19:11:27.751Z,13.80
2019-03-31T19:14:16.121Z,13.60
2019-03-31T19:17:10.393Z,13.60
2019-03-31T19:19:56.383Z,13.50
2019-03-31T19:22:56.021Z,13.40
2019-03-31T19:25:42.326Z,13.40
2019-03-31T19:28:38.188Z,13.40
2019-03-31T19:31:20.618Z,13.30
2019-03-31T19:34:16.646Z,13.30
2019-03-31T19:37:09.708Z,13.20
2019-03-31T19:39:59.864Z,13.20
2019-03-31T19:42:44.252Z,13.10
2019-03-31T19:45:30.451Z,13.00
2019-03-31T19:48:09.498Z,13.00
2019-03-31T19:51:04.937Z,13.00
2019-03-31T19:53:54.781Z,12.90
2019-03-31T19:57:00.010Z,12.90
2019-03-31T19:59:56.555Z,12.80
2019-03-31T20:02:49.007Z,12.70
2019-03-31T20:05:43.750Z,12.70
2019-03-31T20:08:42.162Z,12.60
2019-03-31T20:11:36.574Z,12.50
2019-03-31T20:14:26.063Z,12.50
2019-03-31T20:17:22.050Z,12.40
2019-03-31T20:20:17.496Z,12.30
2019-03-31T20:23:07.255Z,12.30
2019-03-31T20:25:56.501Z,12.20
2019-03-31T20:28:36.587Z,12.20
2019-03-31T20:31:14.240Z,12.10
2019-03-31T20:34:02.242Z,12.20
2019-03-31T20:36:50.123Z,12.10
2019-03-31T20:39:27.720Z,12.00
2019-03-31T20:42:17.476Z,12.00
2019-03-31T20:44:48.081Z,11.90
2019-03-31T20:47:18.786Z,11.90
2019-03-31T20:49:49.655Z,11.90
2019-03-31T20:52:20.378Z,11.90
2019-03-31T20:54:51.094Z,11.90
2019-03-31T20:57:21.914Z,11.90
2019-03-31T20:59:52.808Z,11.80
2019-03-31T21:02:24.878Z,11.80
2019-03-31T21:04:55.724Z,11.70
2019-03-31T21:07:26.604Z,11.70
2019-03-31T21:09:57.582Z,11.70
2019-03-31T21:12:28.510Z,11.60
2019-03-31T21:14:59.674Z,11.60
2019-03-31T21:17:30.833Z,11.50
2019-03-31T21:20:01.544Z,11.50
2019-03-31T21:22:33.886Z,11.50
2019-03-31T21:25:06.898Z,11.40
2019-03-31T21:27:38.033Z,11.40
2019-03-31T21:30:09.318Z,11.30
2019-03-31T21:32:40.064Z,11.30
2019-03-31T21:35:10.829Z,11.30
2019-03-31T21:37:42.542Z,11.20
2019-03-31T21:40:13.520Z,11.10
2019-03-31T21:42:44.371Z,11.10
2019-03-31T21:45:15.055Z,11.10
2019-03-31T21:47:45.946Z,11.10
2019-03-31T21:50:17.177Z,11.00
2019-03-31T21:52:48.033Z,11.00
2019-03-31T21:55:18.727Z,11.00
2019-03-31T21:57:49.534Z,11.00
2019-03-31T22:00:26.499Z,10.90
2019-03-31T22:02:58.751Z,10.80
2019-03-31T22:05:29.489Z,10.80
2019-03-31T22:08:03.720Z,10.80
2019-03-31T22:10:32.319Z,10.80
2019-03-31T22:13:03.420Z,10.80
2019-03-31T22:15:34.052Z,10.70
2019-03-31T22:18:05.052Z,10.70
2019-03-31T22:20:35.901Z,10.60
2019-03-31T22:23:06.987Z,10.60
2019-03-31T22:25:37.773Z,10.60
2019-03-31T22:28:09.653Z,10.60
2019-03-31T22:30:40.612Z,10.50
2019-03-31T22:33:11.348Z,10.40
2019-03-31T22:35:43.792Z,10.40
2019-03-31T22:38:14.624Z,10.40
2019-03-31T22:40:45.165Z,10.40
2019-03-31T22:43:16.488Z,10.40
2019-03-31T22:45:47.532Z,10.40
2019-03-31T22:48:18.321Z,10.50
2019-03-31T22:50:49.210Z,10.40
2019-03-31T22:53:19.762Z,10.50
2019-03-31T22:55:50.538Z,10.50
2019-03-31T22:58:21.023Z,10.50
2019-03-31T23:00:51.684Z,10.50
2019-03-31T23:03:22.611Z,10.50
2019-03-31T23:05:53.124Z,10.50
2019-03-31T23:08:23.682Z,10.50
2019-03-31T23:10:54.406Z,10.50
2019-03-31T23:13:25.091Z,10.50
2019-03-31T23:15:56.084Z,10.50
2019-03-31T23:18:26.720Z,10.40
2019-03-31T23:20:57.298Z,10.40
2019-03-31T23:23:30.067Z,10.40
2019-03-31T23:26:00.823Z,10.40
2019-03-31T23:28:31.837Z,10.40
2019-03-31T23:31:03.834Z,10.40
2019-03-31T23:33:35.656Z,10.40
2019-03-31T23:36:06.348Z,10.30
2019-03-31T23:38:37.353Z,10.30
2019-03-31T23:41:08.101Z,10.30
2019-03-31T23:43:38.963Z,10.30
2019-03-31T23:46:09.449Z,10.30
2019-03-31T23:48:40.250Z,10.20
2019-03-31T23:51:10.844Z,10.10
2019-03-31T23:53:41.595Z,10.10
2019-03-31T23:56:12.240Z,10.00
2019-03-31T23:58:43.040Z,9.90
